Portada
METAR-TAF:

METAR-TAF

Aeroports :

Tak, Tailàndia

latitud: 16-53N, longitud: 099-09E, altitud: 121 m

METAR: manca

Hora: 20:17 (13:17 UTC)

Pronòstic

L'informe es va fer fa 2 hores i 17 minuts, a les 11:00 UTC
Pronòstic vàlid del 03 a les 12 UTC al 04 a les 12 UTC
Vent 5 kt del Oest/Sud-Oest
Visibilitat 10 km o més
Núvols disperses a una alçada de 2500 ft
Temporalment
l' 04 a les 06 UTC al 04 a les 12 UTC
Vent 15 kt del Oest/Sud-Oest amb ràfegues de 25 kt
Visibilitat: 4000 m
Escasses núvols a una alçada de 2000 ft, Cumulonimbus.
Cel ennuvolat a una alçada de 2500 ft
tempesta, pluja

TAF: VTPT 031100Z 0312/0412 24005KT 9999 SCT025 TEMPO 0406/0412 24015G25KT 4000 TSRA FEW020CB BKN025

Observacions i pronòstics meteorològics de més de 4000 aeroports (METAR i TAF).

Les estacions disponibles són els punts grocs i vermells al mapa.

Posi el ratolí al punt desitjat per veure el nom de l'estació.

Feu clic per veure les observacions i els pronòstics meteorològics.

Per canviar el mapa: feu clic els botons verds amb una creu de color negre per apropar; al botó verd amb un guió per allunyar la imatge; o en les fletxes verdes per a mapes adjacents.


METAR-TAF: